Bull — PF4030 — position and weather

sailwx.info

Track history (hours):
 
Tides and Currents Weather Stations Pressure Air Temp Water Temp Dewpoint Dewpoint Depression Visibility Wind Speed Wind Dir Waves Ship Positions

Bull

Last reported at 2018-Jun-25 21:03 UTC. Time now 2018-Jul-19 15:07 UTC.
Position N 37°07' W 008°31'.
Warning: this ship's position is 23 days out of date.

Length 18 m.

Type: Pleasure craft. MMSI: 244090907.

Date/timePositionNaut miles runAvg speedWind from/ knotsBaromVisibWave heightAir tempDewpointWater temp
2018-Jun-25 21:03N 37°07' W 008°31'0 0.0
2018-Jun-25 20:54N 37°07' W 008°31'0 0.0
2018-Jun-25 20:27N 37°07' W 008°31'0 0.0
2018-Jun-25 19:58N 37°07' W 008°31'0 0.0
2018-Jun-25 19:28N 37°07' W 008°31'0 0.0
2018-Jun-25 18:50N 37°07' W 008°31'0 0.0
2018-Jun-25 18:27N 37°07' W 008°31'0 0.0
2018-Jun-25 17:51N 37°07' W 008°31'0 0.0
2018-Jun-25 17:26N 37°07' W 008°31'0 0.0
2018-Jun-25 16:55N 37°07' W 008°31'2211.9
2018-Jun-25 15:03N 36°59' W 008°05'1 5.3
2018-Jun-25 14:54N 36°59' W 008°06'2 5.2
2018-Jun-25 14:26N 37°00' W 008°09'2 5.3
2018-Jun-25 13:59N 37°01' W 008°12'3 5.7
2018-Jun-25 13:30N 37°02' W 008°15'3 5.6
2018-Jun-25 12:58N 37°03' W 008°19'3 5.6
2018-Jun-25 12:30N 37°04' W 008°22'3 5.2
2018-Jun-25 11:59N 37°04' W 008°25'3 6.1
2018-Jun-25 11:30N 37°05' W 008°29'2 4.8
2018-Jun-25 11:01N 37°06' W 008°31'0 0.7
2018-Jun-25 10:28N 37°07' W 008°31'0 0.0
2018-Jun-25 09:58N 37°07' W 008°31'0 0.0
2018-Jun-25 09:25N 37°07' W 008°31'0 0.0
2018-Jun-25 08:58N 37°07' W 008°31'0 0.0
2018-Jun-25 08:25N 37°07' W 008°31'0 0.0
2018-Jun-25 07:49N 37°07' W 008°31'0 0.0
2018-Jun-25 07:25N 37°07' W 008°31'0 0.0
2018-Jun-25 06:58N 37°07' W 008°31'0 0.0
2018-Jun-25 06:28N 37°07' W 008°31'0 0.0
2018-Jun-25 05:58N 37°07' W 008°31'0 0.0
2018-Jun-25 05:30N 37°07' W 008°31'0 0.0
2018-Jun-25 04:43N 37°07' W 008°31'0 0.0
2018-Jun-25 04:28N 37°07' W 008°31'0 0.0
2018-Jun-25 03:55N 37°07' W 008°31'0 0.0
2018-Jun-25 03:28N 37°07' W 008°31'0 0.0
2018-Jun-25 02:58N 37°07' W 008°31'0 0.0
2018-Jun-25 02:25N 37°07' W 008°31'0 0.0
2018-Jun-25 01:55N 37°07' W 008°31'0 0.0
2018-Jun-25 01:25N 37°07' W 008°31'0 0.0
2018-Jun-25 00:55N 37°07' W 008°31'0 0.0
2018-Jun-25 00:28N 37°07' W 008°31'0 0.0
2018-Jun-24 23:58N 37°07' W 008°31'0 0.0
2018-Jun-24 23:25N 37°07' W 008°31'0 0.0
2018-Jun-24 22:55N 37°07' W 008°31'0 0.0
2018-Jun-24 22:25N 37°07' W 008°31'0 0.0
2018-Jun-24 21:55N 37°07' W 008°31'0 0.0
2018-Jun-24 21:25N 37°07' W 008°31'0 0.0
2018-Jun-24 20:49N 37°07' W 008°31'0 0.0
2018-Jun-24 20:25N 37°07' W 008°31'0 0.0
2018-Jun-24 19:52N 37°07' W 008°31'0 0.0
2018-Jun-24 19:25N 37°07' W 008°31'0 0.0
2018-Jun-24 15:49N 37°07' W 008°31'0 0.0
2018-Jun-24 15:25N 37°07' W 008°31'0 0.0
2018-Jun-24 14:49N 37°07' W 008°31'0 0.0
2018-Jun-24 14:25N 37°07' W 008°31'0 0.0
2018-Jun-24 13:58N 37°07' W 008°31'0 0.0
2018-Jun-24 13:25N 37°07' W 008°31'0 0.0
2018-Jun-24 12:55N 37°07' W 008°32'0 0.0
2018-Jun-24 12:13N 37°07' W 008°31'0 0.0
2018-Jun-24 11:55N 37°07' W 008°31'0 0.0
2018-Jun-24 11:22N 37°07' W 008°31'0 0.0
2018-Jun-24 10:55N 37°07' W 008°31'0 0.0
2018-Jun-24 10:28N 37°07' W 008°31'0 0.0
2018-Jun-24 09:58N 37°07' W 008°31'0 0.0
2018-Jun-24 09:25N 37°07' W 008°31'0 0.0
2018-Jun-24 09:00N 37°07' W 008°31'0 0.0
2018-Jun-24 08:25N 37°07' W 008°31'0 0.0
2018-Jun-24 07:58N 37°07' W 008°31'0 0.0
2018-Jun-24 07:30N 37°07' W 008°31'0 0.0
2018-Jun-24 06:58N 37°07' W 008°31'0 0.0
2018-Jun-24 06:28N 37°07' W 008°31'0 0.0
2018-Jun-24 05:58N 37°07' W 008°31'0 0.0
2018-Jun-24 05:28N 37°07' W 008°31'0 0.0
2018-Jun-24 04:58N 37°07' W 008°31'0 0.0
2018-Jun-24 04:26N 37°07' W 008°31'0 0.0
2018-Jun-24 03:55N 37°07' W 008°31'0 0.0
2018-Jun-24 03:30N 37°07' W 008°31'0 0.0
2018-Jun-24 02:58N 37°07' W 008°31'0 0.0
2018-Jun-24 02:22N 37°07' W 008°31'0 0.0
2018-Jun-24 01:55N 37°07' W 008°31'0 0.0
2018-Jun-24 01:28N 37°07' W 008°31'0 0.0
2018-Jun-24 00:55N 37°07' W 008°31'0 0.0
2018-Jun-24 00:28N 37°07' W 008°31'0 0.1
2018-Jun-24 00:00N 37°07' W 008°31'0 0.0
2018-Jun-23 23:28N 37°07' W 008°31'0 0.0
2018-Jun-23 22:55N 37°07' W 008°31'0 0.0
2018-Jun-23 22:29N 37°07' W 008°31'0 0.0
2018-Jun-23 21:55N 37°07' W 008°31'0 0.0
2018-Jun-23 21:28N 37°07' W 008°31'0 0.0
2018-Jun-23 20:58N 37°07' W 008°31'0 0.0
2018-Jun-23 20:28N 37°07' W 008°31'0 0.0
2018-Jun-23 19:58N 37°07' W 008°31'0 0.0
2018-Jun-23 19:19N 37°07' W 008°31'0 0.0
2018-Jun-23 18:58N 37°07' W 008°31'0 0.0
2018-Jun-23 18:25N 37°07' W 008°31'0 0.0
2018-Jun-23 17:55N 37°07' W 008°31'0 0.0
2018-Jun-23 17:25N 37°07' W 008°31'0 0.0
2018-Jun-23 16:55N 37°07' W 008°31'0 0.0
2018-Jun-23 16:19N 37°07' W 008°31'0 0.0
2018-Jun-23 15:55N 37°07' W 008°31'0 0.0
2018-Jun-23 15:28N 37°07' W 008°31'0 0.0
2018-Jun-23 14:55N 37°07' W 008°31'0 0.0
2018-Jun-23 14:25N 37°07' W 008°31'0 0.0
2018-Jun-23 13:52N 37°07' W 008°31'0 0.0
2018-Jun-23 13:19N 37°07' W 008°31'0 0.0
2018-Jun-23 12:52N 37°07' W 008°31'0 0.0
2018-Jun-23 12:28N 37°07' W 008°31'0 0.0
2018-Jun-23 11:55N 37°07' W 008°32'0 0.0
2018-Jun-23 11:28N 37°07' W 008°31'0 0.0
2018-Jun-23 10:58N 37°07' W 008°31'0 0.0
2018-Jun-23 10:25N 37°07' W 008°31'0 0.0
2018-Jun-23 09:55N 37°07' W 008°32'0 0.0
2018-Jun-23 09:25N 37°07' W 008°31'0 0.0
2018-Jun-23 08:58N 37°07' W 008°31'0 0.0
2018-Jun-23 08:22N 37°07' W 008°31'0 0.0
2018-Jun-23 07:55N 37°07' W 008°31'0 0.0
2018-Jun-23 07:28N 37°07' W 008°31'0 0.0
2018-Jun-23 06:58N 37°07' W 008°31'0 0.0
2018-Jun-23 06:25N 37°07' W 008°31'0 0.0
2018-Jun-23 05:58N 37°07' W 008°31'0 0.0
2018-Jun-23 05:25N 37°07' W 008°31'0 0.0
2018-Jun-23 04:55N 37°07' W 008°31'0 0.0
2018-Jun-23 04:28N 37°07' W 008°31'0 0.0
2018-Jun-23 03:55N 37°07' W 008°31'0 0.0
2018-Jun-23 03:28N 37°07' W 008°31'0 0.0
2018-Jun-23 02:49N 37°07' W 008°31'0 0.0
2018-Jun-23 02:25N 37°07' W 008°31'0 0.0
2018-Jun-23 01:37N 37°07' W 008°31'0 0.0
2018-Jun-23 01:22N 37°07' W 008°31'0 0.0
2018-Jun-23 00:55N 37°07' W 008°31'0 0.0
2018-Jun-23 00:28N 37°07' W 008°31'0 0.0
2018-Jun-22 23:58N 37°07' W 008°31'0 0.0
2018-Jun-22 23:25N 37°07' W 008°32'0 0.0
2018-Jun-22 22:58N 37°07' W 008°31'0 0.0
2018-Jun-22 22:28N 37°07' W 008°31'0 0.0
2018-Jun-22 21:55N 37°07' W 008°31'0 0.0
2018-Jun-22 21:22N 37°07' W 008°31'0 0.0
2018-Jun-22 20:55N 37°07' W 008°31'4 0.6
2018-Jun-22 13:46N 37°08' W 008°36'4 6.8
2018-Jun-22 13:11N 37°07' W 008°31'1 2.5
2018-Jun-22 12:56N 37°06' W 008°32'2 5.7
2018-Jun-22 12:30N 37°05' W 008°35'3 6.1
2018-Jun-22 11:59N 37°08' W 008°36'2 3.3
2018-Jun-22 11:30N 37°06' W 008°36'3 5.1
2018-Jun-22 10:53N 37°04' W 008°38'2 3.3
2018-Jun-22 10:19N 37°06' W 008°38'1 4.5
2018-Jun-22 10:00N 37°07' W 008°37'1 1.7
2018-Jun-22 09:22N 37°08' W 008°36'0 0.0
2018-Jun-22 08:58N 37°08' W 008°36'0 0.0
2018-Jun-22 08:28N 37°08' W 008°36'0 0.0
2018-Jun-22 07:53N 37°08' W 008°36'0 0.0
2018-Jun-22 07:22N 37°08' W 008°36'0 0.0
2018-Jun-22 02:25N 37°08' W 008°36'0 0.0
2018-Jun-22 01:55N 37°08' W 008°36'0 0.0
2018-Jun-22 01:28N 37°08' W 008°36'0 0.0
2018-Jun-22 00:58N 37°08' W 008°36'0 0.0
2018-Jun-22 00:16N 37°08' W 008°36'0 0.0
2018-Jun-21 23:55N 37°08' W 008°36'0 0.0
2018-Jun-21 23:28N 37°08' W 008°36'0 0.0
2018-Jun-21 22:58N 37°08' W 008°36'0 0.0
2018-Jun-21 22:22N 37°08' W 008°36'0 0.0
2018-Jun-21 21:58N 37°08' W 008°36'0 0.0
2018-Jun-21 21:28N 37°08' W 008°36'0 0.0
2018-Jun-21 18:48N 37°08' W 008°36'0 0.0
2018-Jun-21 18:28N 37°08' W 008°36'0 0.0
2018-Jun-21 17:58N 37°08' W 008°36'0 0.0
2018-Jun-21 17:26N 37°08' W 008°36'0 0.0
2018-Jun-21 16:58N 37°08' W 008°36'0 0.0
2018-Jun-21 16:25N 37°08' W 008°36'0 0.0
2018-Jun-21 15:58N 37°08' W 008°36'0 0.0
2018-Jun-21 15:28N 37°08' W 008°36'0 0.0
2018-Jun-21 14:49N 37°08' W 008°36'0 0.0
2018-Jun-21 14:25N 37°08' W 008°36'0 0.0
2018-Jun-21 13:40N 37°08' W 008°36'0 0.0
2018-Jun-21 13:16N 37°08' W 008°36'0 0.1
2018-Jun-21 12:58N 37°08' W 008°36'0 0.0
2018-Jun-21 12:28N 37°08' W 008°36'0 0.0
2018-Jun-21 11:55N 37°08' W 008°36'0 0.0
2018-Jun-21 11:07N 37°08' W 008°36'0 0.0
2018-Jun-21 10:37N 37°08' W 008°36'0 0.0
2018-Jun-21 10:28N 37°08' W 008°36'0 0.0
2018-Jun-21 09:58N 37°08' W 008°36'0 0.0
2018-Jun-21 09:25N 37°08' W 008°36'0 0.0
2018-Jun-21 08:49N 37°08' W 008°36'0 0.0
2018-Jun-21 08:28N 37°08' W 008°36'0 0.0
2018-Jun-21 07:58N 37°08' W 008°36'0 0.0
2018-Jun-21 07:25N 37°08' W 008°36'0 0.0
2018-Jun-21 06:55N 37°08' W 008°36'0 0.0
2018-Jun-21 06:28N 37°08' W 008°36'0 0.0
2018-Jun-21 05:49N 37°08' W 008°36'0 0.0
2018-Jun-21 04:32N 37°08' W 008°36'0 0.1
2018-Jun-21 04:19N 37°08' W 008°36'0 0.0
2018-Jun-21 00:43N 37°08' W 008°36'0 0.0
2018-Jun-21 00:25N 37°08' W 008°36'0 0.0
2018-Jun-20 22:43N 37°08' W 008°36'0 0.0
2018-Jun-20 22:22N 37°08' W 008°36'0 0.0
2018-Jun-20 21:55N 37°08' W 008°36'0 0.0
2018-Jun-20 21:22N 37°08' W 008°36'0 0.0
2018-Jun-20 20:58N 37°08' W 008°36'0 0.0
2018-Jun-20 20:28N 37°08' W 008°36'0 0.0
2018-Jun-20 19:59N 37°08' W 008°36'0 0.0
2018-Jun-20 19:28N 37°08' W 008°36'0 0.0
2018-Jun-20 18:58N 37°08' W 008°36'0 0.0
2018-Jun-20 18:25N 37°08' W 008°36'0 0.0
2018-Jun-20 17:58N 37°08' W 008°36'0 0.0
2018-Jun-20 17:25N 37°08' W 008°36'0 0.0
2018-Jun-20 16:55N 37°08' W 008°36'0 0.0
2018-Jun-20 16:25N 37°08' W 008°36'0 0.1
2018-Jun-20 15:58N 37°08' W 008°36'0 0.0
2018-Jun-20 15:25N 37°08' W 008°36'0 0.0
2018-Jun-20 14:55N 37°08' W 008°36'0 0.0
2018-Jun-20 14:25N 37°08' W 008°36'0 0.0
2018-Jun-20 13:55N 37°08' W 008°36'0 0.0
2018-Jun-20 13:25N 37°08' W 008°36'0 0.0
2018-Jun-20 12:58N 37°08' W 008°36'0 0.0
2018-Jun-20 12:28N 37°08' W 008°36'0 0.0
2018-Jun-20 11:55N 37°08' W 008°36'0 0.0
2018-Jun-20 11:19N 37°08' W 008°36'0 0.0
2018-Jun-20 10:55N 37°08' W 008°36'0 0.0
2018-Jun-20 10:25N 37°08' W 008°36'0 0.0
2018-Jun-20 09:58N 37°08' W 008°36'0 0.0
2018-Jun-20 09:28N 37°08' W 008°36'0 0.0
2018-Jun-20 08:55N 37°08' W 008°36'0 0.0
2018-Jun-20 08:26N 37°08' W 008°36'0 0.0
2018-Jun-20 08:00N 37°08' W 008°36'0 0.0
2018-Jun-20 07:29N 37°08' W 008°36'0 0.0
2018-Jun-20 06:55N 37°08' W 008°36'0 0.0
2018-Jun-20 06:28N 37°08' W 008°36'0 0.0
2018-Jun-20 05:58N 37°08' W 008°36'0 0.0
2018-Jun-20 05:25N 37°08' W 008°36'0 0.0
2018-Jun-20 04:58N 37°08' W 008°36'0 0.0
2018-Jun-20 04:25N 37°08' W 008°36'0 0.0
2018-Jun-20 03:55N 37°08' W 008°36'0 0.0
2018-Jun-20 03:25N 37°08' W 008°36'0 0.0
2018-Jun-20 02:55N 37°08' W 008°36'0 0.1
2018-Jun-20 02:28N 37°08' W 008°36'0 0.0
2018-Jun-20 01:55N 37°08' W 008°36'0 0.0
2018-Jun-20 01:25N 37°08' W 008°36'0 0.0
2018-Jun-20 00:58N 37°08' W 008°36'0 0.0
2018-Jun-20 00:25N 37°08' W 008°36'0 0.0
2018-Jun-19 23:55N 37°08' W 008°36'0 0.0
2018-Jun-19 23:25N 37°08' W 008°36'0 0.0
2018-Jun-19 22:58N 37°08' W 008°36'0 0.0
2018-Jun-19 22:25N 37°08' W 008°36'0 0.0
2018-Jun-19 21:55N 37°08' W 008°36'0 0.0
2018-Jun-19 21:25N 37°08' W 008°36'0 0.0
2018-Jun-19 20:58N 37°08' W 008°36'0 0.0
2018-Jun-19 20:25N 37°08' W 008°36'0 0.0
2018-Jun-19 19:55N 37°08' W 008°36'0 0.0
2018-Jun-19 19:28N 37°08' W 008°36'0 0.0
2018-Jun-19 18:49N 37°08' W 008°36'0 0.0
2018-Jun-19 18:25N 37°08' W 008°36'0 0.0
2018-Jun-19 17:55N 37°08' W 008°36'0 0.0
2018-Jun-19 17:25N 37°08' W 008°36'0 0.0
2018-Jun-19 16:58N 37°08' W 008°36'0 0.0
2018-Jun-19 16:25N 37°08' W 008°36'0 0.0
2018-Jun-19 15:58N 37°08' W 008°36'0 0.0
2018-Jun-19 15:28N 37°08' W 008°36'0 0.0
2018-Jun-19 14:58N 37°08' W 008°36'0 0.0
2018-Jun-19 14:26N 37°08' W 008°36'0 0.0
2018-Jun-19 13:58N 37°08' W 008°36'0 0.0
2018-Jun-19 13:26N 37°08' W 008°36'0 0.0
2018-Jun-19 12:55N 37°08' W 008°36'0 0.0
2018-Jun-19 12:25N 37°08' W 008°36'0 0.0
2018-Jun-19 11:58N 37°08' W 008°36'0 0.0
2018-Jun-19 11:25N 37°08' W 008°36'0 0.0
2018-Jun-19 10:55N 37°08' W 008°36'0 0.0
2018-Jun-19 10:28N 37°08' W 008°36'0 0.0
2018-Jun-19 09:58N 37°08' W 008°36'0 0.0
2018-Jun-19 09:25N 37°08' W 008°36'0 0.0
2018-Jun-19 08:58N 37°08' W 008°36'0 0.0
2018-Jun-19 08:25N 37°08' W 008°36'0 0.0
2018-Jun-19 07:55N 37°08' W 008°36'0 0.0
2018-Jun-19 07:28N 37°08' W 008°36'0 0.0
2018-Jun-19 06:55N 37°08' W 008°36'0 0.0
2018-Jun-19 06:25N 37°08' W 008°36'0 0.0
2018-Jun-19 05:49N 37°08' W 008°36'0 0.0
2018-Jun-19 05:28N 37°08' W 008°36'0 0.0
2018-Jun-19 04:58N 37°08' W 008°36'0 0.0
2018-Jun-19 04:25N 37°08' W 008°36'0 0.0
2018-Jun-19 03:55N 37°08' W 008°36'0 0.1
2018-Jun-19 03:28N 37°08' W 008°36'0 0.0
2018-Jun-19 02:55N 37°08' W 008°36'0 0.0
2018-Jun-19 02:25N 37°08' W 008°36'0 0.0
2018-Jun-19 01:59N 37°08' W 008°36'0 0.0
2018-Jun-19 01:29N 37°08' W 008°36'0 0.0
2018-Jun-19 00:55N 37°08' W 008°36'0 0.0
2018-Jun-19 00:28N 37°08' W 008°36'0 0.0
2018-Jun-18 23:59N 37°08' W 008°36'0 0.0
2018-Jun-18 23:29N 37°08' W 008°36'0 0.0
2018-Jun-18 22:59N 37°08' W 008°36'0 0.0
2018-Jun-18 22:29N 37°08' W 008°36'0 0.0
2018-Jun-18 21:59N 37°08' W 008°36'0 0.0
2018-Jun-18 21:29N 37°08' W 008°36'0 0.0
2018-Jun-18 20:59N 37°08' W 008°36'0 0.0
2018-Jun-18 20:26N 37°08' W 008°36'0 0.0
2018-Jun-18 19:59N 37°08' W 008°36'0 0.0
2018-Jun-18 19:26N 37°08' W 008°36'0 0.0
2018-Jun-18 18:59N 37°08' W 008°36'0 0.0
2018-Jun-18 15:14N 37°08' W 008°36'0 0.0
2018-Jun-18 14:56N 37°08' W 008°36'0 0.0
2018-Jun-18 14:26N 37°08' W 008°36'0 0.0
2018-Jun-18 13:56N 37°08' W 008°36'0 0.0
2018-Jun-18 13:26N 37°08' W 008°36'0 0.0
2018-Jun-18 12:53N 37°08' W 008°36'0 0.0
2018-Jun-18 12:29N 37°08' W 008°36'0 0.0
2018-Jun-18 11:56N 37°08' W 008°36'0 0.0
2018-Jun-18 11:20N 37°08' W 008°36'0 0.0
2018-Jun-18 10:50N 37°08' W 008°36'0 0.0
2018-Jun-18 10:29N 37°08' W 008°36'0 0.0
2018-Jun-18 09:59N 37°08' W 008°36'0 0.0
2018-Jun-18 09:17N 37°08' W 008°36'0 0.0
2018-Jun-18 08:56N 37°08' W 008°36'0 0.0
2018-Jun-18 08:26N 37°08' W 008°36'0 0.0
2018-Jun-18 07:56N 37°08' W 008°36'0 0.0
2018-Jun-18 07:29N 37°08' W 008°36'0 0.0
2018-Jun-18 06:59N 37°08' W 008°36'0 0.0
2018-Jun-18 06:29N 37°08' W 008°36'0 0.0
2018-Jun-18 05:59N 37°08' W 008°36'0 0.0
2018-Jun-18 05:29N 37°08' W 008°36'0 0.0
2018-Jun-18 04:59N 37°08' W 008°36'0 0.0
2018-Jun-18 04:26N 37°08' W 008°36'0 0.0
2018-Jun-18 03:59N 37°08' W 008°36'0 0.0
2018-Jun-18 03:26N 37°08' W 008°36'0 0.0
2018-Jun-18 02:59N 37°08' W 008°36'0 0.0
2018-Jun-18 02:26N 37°08' W 008°36'0 0.0
2018-Jun-18 01:56N 37°08' W 008°36'0 0.0
2018-Jun-18 01:29N 37°08' W 008°36'0 0.0
2018-Jun-18 00:59N 37°08' W 008°36'0 0.0
2018-Jun-18 00:29N 37°08' W 008°36'0 0.0
2018-Jun-17 23:59N 37°08' W 008°36'0 0.0
2018-Jun-17 23:26N 37°08' W 008°36'0 0.0
2018-Jun-17 22:56N 37°08' W 008°36'0 0.0
2018-Jun-17 22:29N 37°08' W 008°36'0 0.0
2018-Jun-17 21:59N 37°08' W 008°36'0 0.0
2018-Jun-17 21:29N 37°08' W 008°36'0 0.0
2018-Jun-17 20:50N 37°08' W 008°36'0 0.0
2018-Jun-17 20:26N 37°08' W 008°36'0 0.0
2018-Jun-17 19:26N 37°08' W 008°36'0 0.0
2018-Jun-17 18:02N 37°08' W 008°36'0 0.0
2018-Jun-17 17:41N 37°08' W 008°36'0 0.0
2018-Jun-17 12:42N 37°08' W 008°36'0 0.0
2018-Jun-17 12:26N 37°08' W 008°36'0 0.0
2018-Jun-17 11:58N 37°08' W 008°36'0 0.0
2018-Jun-17 10:46N 37°08' W 008°36'0 0.0
2018-Jun-17 10:20N 37°08' W 008°36'0 0.0
2018-Jun-17 09:58N 37°08' W 008°36'0 0.0
2018-Jun-17 09:28N 37°08' W 008°36'0 0.0
2018-Jun-17 08:19N 37°08' W 008°36'0 0.0
2018-Jun-17 07:49N 37°08' W 008°36'0 0.0
2018-Jun-17 07:28N 37°08' W 008°36'0 0.0
2018-Jun-17 05:25N 37°08' W 008°36'0 0.0
2018-Jun-17 04:58N 37°08' W 008°36'0 0.0
2018-Jun-17 04:16N 37°08' W 008°36'0 0.0
2018-Jun-17 03:47N 37°08' W 008°36'0 0.0
2018-Jun-17 03:25N 37°08' W 008°36'0 0.0
2018-Jun-17 02:58N 37°08' W 008°36'0 0.0
2018-Jun-17 02:19N 37°08' W 008°36'0 0.0
2018-Jun-17 01:58N 37°08' W 008°36'0 0.0
2018-Jun-17 01:28N 37°08' W 008°36'0 0.0
2018-Jun-17 00:58N 37°08' W 008°36'0 0.0
2018-Jun-17 00:25N 37°08' W 008°36'0 0.0
2018-Jun-16 23:55N 37°08' W 008°36'0 0.0
2018-Jun-16 23:28N 37°08' W 008°36'0 0.0
2018-Jun-16 22:58N 37°08' W 008°36'0 0.0
2018-Jun-16 22:28N 37°08' W 008°36'0 0.0
2018-Jun-16 21:55N 37°08' W 008°36'0 0.0
2018-Jun-16 21:25N 37°08' W 008°36'0 0.0
2018-Jun-16 19:19N 37°08' W 008°36'0 0.0
2018-Jun-16 18:55N 37°08' W 008°36'0 0.0
2018-Jun-16 18:10N 37°08' W 008°36'0 0.0
2018-Jun-16 17:55N 37°08' W 008°36'0 0.0
2018-Jun-16 17:25N 37°08' W 008°36'0 0.0
2018-Jun-16 16:58N 37°08' W 008°36'0 0.0
2018-Jun-16 16:25N 37°08' W 008°36'0 0.0
2018-Jun-16 15:55N 37°08' W 008°36'0 0.0
2018-Jun-16 15:28N 37°08' W 008°36'0 0.0
2018-Jun-16 15:00N 37°08' W 008°36'0 0.0
2018-Jun-16 14:30N 37°08' W 008°36'0 0.0
2018-Jun-16 14:00N 37°08' W 008°36'1 1.9
2018-Jun-16 13:30N 37°07' W 008°37'2 3.8
2018-Jun-16 13:00N 37°06' W 008°36'2 3.1
2018-Jun-16 12:30N 37°04' W 008°35'1 2.3
2018-Jun-16 11:56N 37°03' W 008°34'2 5.4
2018-Jun-16 11:30N 37°04' W 008°37'2 4.5
2018-Jun-16 10:59N 37°06' W 008°39'1 1.6
2018-Jun-16 10:05N 37°07' W 008°40'0 0.0
2018-Jun-16 09:53N 37°07' W 008°40'0 0.0
2018-Jun-16 09:26N 37°07' W 008°40'0 0.0
2018-Jun-16 07:07N 37°07' W 008°40'0 0.0
2018-Jun-16 06:59N 37°07' W 008°40'0 0.0
2018-Jun-16 06:28N 37°07' W 008°40'0 0.0
2018-Jun-16 05:52N 37°07' W 008°40'0 0.0
2018-Jun-16 05:23N 37°07' W 008°40'0 0.0
2018-Jun-16 04:55N 37°07' W 008°40'0 0.0
2018-Jun-16 04:30N 37°07' W 008°40'0 0.0
2018-Jun-16 03:44N 37°07' W 008°40'0 0.0
2018-Jun-16 03:20N 37°07' W 008°40'0 0.0
2018-Jun-16 03:00N 37°07' W 008°40'0 0.0
2018-Jun-16 02:26N 37°07' W 008°40'0 0.0
2018-Jun-16 01:55N 37°07' W 008°40'0 0.0
2018-Jun-16 00:42N 37°07' W 008°40'0 0.0
2018-Jun-16 00:26N 37°07' W 008°40'0 0.0
2018-Jun-15 23:49N 37°07' W 008°40'0 0.0
2018-Jun-15 23:30N 37°07' W 008°40'0 0.0
2018-Jun-15 22:59N 37°07' W 008°40'0 0.0
2018-Jun-15 22:24N 37°07' W 008°40'0 0.0
2018-Jun-15 21:59N 37°07' W 008°40'0 0.0
2018-Jun-15 21:13N 37°07' W 008°40'  
Track history (hours):
 
Tides and Currents Weather Stations Pressure Air Temp Water Temp Dewpoint Dewpoint Depression Visibility Wind Speed Wind Dir Waves Ship Positions

Bull

Last reported at 2018-Jun-25 21:03 UTC. Time now 2018-Jul-19 15:07 UTC.
Position N 37°07' W 008°31'.
Warning: this ship's position is 23 days out of date.

Length 18 m.

Type: Pleasure craft. MMSI: 244090907.

Date/timePositionNaut miles runAvg speedWind from/ knotsBaromVisibWave heightAir tempDewpointWater temp
2018-Jun-25 21:03N 37°07' W 008°31'0 0.0
2018-Jun-25 20:54N 37°07' W 008°31'0 0.0
2018-Jun-25 20:27N 37°07' W 008°31'0 0.0
2018-Jun-25 19:58N 37°07' W 008°31'0 0.0
2018-Jun-25 19:28N 37°07' W 008°31'0 0.0
2018-Jun-25 18:50N 37°07' W 008°31'0 0.0
2018-Jun-25 18:27N 37°07' W 008°31'0 0.0
2018-Jun-25 17:51N 37°07' W 008°31'0 0.0
2018-Jun-25 17:26N 37°07' W 008°31'0 0.0
2018-Jun-25 16:55N 37°07' W 008°31'2211.9
2018-Jun-25 15:03N 36°59' W 008°05'1 5.3
2018-Jun-25 14:54N 36°59' W 008°06'2 5.2
2018-Jun-25 14:26N 37°00' W 008°09'2 5.3
2018-Jun-25 13:59N 37°01' W 008°12'3 5.7
2018-Jun-25 13:30N 37°02' W 008°15'3 5.6
2018-Jun-25 12:58N 37°03' W 008°19'3 5.6
2018-Jun-25 12:30N 37°04' W 008°22'3 5.2
2018-Jun-25 11:59N 37°04' W 008°25'3 6.1
2018-Jun-25 11:30N 37°05' W 008°29'2 4.8
2018-Jun-25 11:01N 37°06' W 008°31'0 0.7
2018-Jun-25 10:28N 37°07' W 008°31'0 0.0
2018-Jun-25 09:58N 37°07' W 008°31'0 0.0
2018-Jun-25 09:25N 37°07' W 008°31'0 0.0
2018-Jun-25 08:58N 37°07' W 008°31'0 0.0
2018-Jun-25 08:25N 37°07' W 008°31'0 0.0
2018-Jun-25 07:49N 37°07' W 008°31'0 0.0
2018-Jun-25 07:25N 37°07' W 008°31'0 0.0
2018-Jun-25 06:58N 37°07' W 008°31'0 0.0
2018-Jun-25 06:28N 37°07' W 008°31'0 0.0
2018-Jun-25 05:58N 37°07' W 008°31'0 0.0
2018-Jun-25 05:30N 37°07' W 008°31'0 0.0
2018-Jun-25 04:43N 37°07' W 008°31'0 0.0
2018-Jun-25 04:28N 37°07' W 008°31'0 0.0
2018-Jun-25 03:55N 37°07' W 008°31'0 0.0
2018-Jun-25 03:28N 37°07' W 008°31'0 0.0
2018-Jun-25 02:58N 37°07' W 008°31'0 0.0
2018-Jun-25 02:25N 37°07' W 008°31'0 0.0
2018-Jun-25 01:55N 37°07' W 008°31'0 0.0
2018-Jun-25 01:25N 37°07' W 008°31'0 0.0
2018-Jun-25 00:55N 37°07' W 008°31'0 0.0
2018-Jun-25 00:28N 37°07' W 008°31'0 0.0
2018-Jun-24 23:58N 37°07' W 008°31'0 0.0
2018-Jun-24 23:25N 37°07' W 008°31'0 0.0
2018-Jun-24 22:55N 37°07' W 008°31'0 0.0
2018-Jun-24 22:25N 37°07' W 008°31'0 0.0
2018-Jun-24 21:55N 37°07' W 008°31'0 0.0
2018-Jun-24 21:25N 37°07' W 008°31'0 0.0
2018-Jun-24 20:49N 37°07' W 008°31'0 0.0
2018-Jun-24 20:25N 37°07' W 008°31'0 0.0
2018-Jun-24 19:52N 37°07' W 008°31'0 0.0
2018-Jun-24 19:25N 37°07' W 008°31'0 0.0
2018-Jun-24 15:49N 37°07' W 008°31'0 0.0
2018-Jun-24 15:25N 37°07' W 008°31'0 0.0
2018-Jun-24 14:49N 37°07' W 008°31'0 0.0
2018-Jun-24 14:25N 37°07' W 008°31'0 0.0
2018-Jun-24 13:58N 37°07' W 008°31'0 0.0
2018-Jun-24 13:25N 37°07' W 008°31'0 0.0
2018-Jun-24 12:55N 37°07' W 008°32'0 0.0
2018-Jun-24 12:13N 37°07' W 008°31'0 0.0
2018-Jun-24 11:55N 37°07' W 008°31'0 0.0
2018-Jun-24 11:22N 37°07' W 008°31'0 0.0
2018-Jun-24 10:55N 37°07' W 008°31'0 0.0
2018-Jun-24 10:28N 37°07' W 008°31'0 0.0
2018-Jun-24 09:58N 37°07' W 008°31'0 0.0
2018-Jun-24 09:25N 37°07' W 008°31'0 0.0
2018-Jun-24 09:00N 37°07' W 008°31'0 0.0
2018-Jun-24 08:25N 37°07' W 008°31'0 0.0
2018-Jun-24 07:58N 37°07' W 008°31'0 0.0
2018-Jun-24 07:30N 37°07' W 008°31'0 0.0
2018-Jun-24 06:58N 37°07' W 008°31'0 0.0
2018-Jun-24 06:28N 37°07' W 008°31'0 0.0
2018-Jun-24 05:58N 37°07' W 008°31'0 0.0
2018-Jun-24 05:28N 37°07' W 008°31'0 0.0
2018-Jun-24 04:58N 37°07' W 008°31'0 0.0
2018-Jun-24 04:26N 37°07' W 008°31'0 0.0
2018-Jun-24 03:55N 37°07' W 008°31'0 0.0
2018-Jun-24 03:30N 37°07' W 008°31'0 0.0
2018-Jun-24 02:58N 37°07' W 008°31'0 0.0
2018-Jun-24 02:22N 37°07' W 008°31'0 0.0
2018-Jun-24 01:55N 37°07' W 008°31'0 0.0
2018-Jun-24 01:28N 37°07' W 008°31'0 0.0
2018-Jun-24 00:55N 37°07' W 008°31'0 0.0
2018-Jun-24 00:28N 37°07' W 008°31'0 0.1
2018-Jun-24 00:00N 37°07' W 008°31'0 0.0
2018-Jun-23 23:28N 37°07' W 008°31'0 0.0
2018-Jun-23 22:55N 37°07' W 008°31'0 0.0
2018-Jun-23 22:29N 37°07' W 008°31'0 0.0
2018-Jun-23 21:55N 37°07' W 008°31'0 0.0
2018-Jun-23 21:28N 37°07' W 008°31'0 0.0
2018-Jun-23 20:58N 37°07' W 008°31'0 0.0
2018-Jun-23 20:28N 37°07' W 008°31'0 0.0
2018-Jun-23 19:58N 37°07' W 008°31'0 0.0
2018-Jun-23 19:19N 37°07' W 008°31'0 0.0
2018-Jun-23 18:58N 37°07' W 008°31'0 0.0
2018-Jun-23 18:25N 37°07' W 008°31'0 0.0
2018-Jun-23 17:55N 37°07' W 008°31'0 0.0
2018-Jun-23 17:25N 37°07' W 008°31'0 0.0
2018-Jun-23 16:55N 37°07' W 008°31'0 0.0
2018-Jun-23 16:19N 37°07' W 008°31'0 0.0
2018-Jun-23 15:55N 37°07' W 008°31'0 0.0
2018-Jun-23 15:28N 37°07' W 008°31'0 0.0
2018-Jun-23 14:55N 37°07' W 008°31'0 0.0
2018-Jun-23 14:25N 37°07' W 008°31'0 0.0
2018-Jun-23 13:52N 37°07' W 008°31'0 0.0
2018-Jun-23 13:19N 37°07' W 008°31'0 0.0
2018-Jun-23 12:52N 37°07' W 008°31'0 0.0
2018-Jun-23 12:28N 37°07' W 008°31'0 0.0
2018-Jun-23 11:55N 37°07' W 008°32'0 0.0
2018-Jun-23 11:28N 37°07' W 008°31'0 0.0
2018-Jun-23 10:58N 37°07' W 008°31'0 0.0
2018-Jun-23 10:25N 37°07' W 008°31'0 0.0
2018-Jun-23 09:55N 37°07' W 008°32'0 0.0
2018-Jun-23 09:25N 37°07' W 008°31'0 0.0
2018-Jun-23 08:58N 37°07' W 008°31'0 0.0
2018-Jun-23 08:22N 37°07' W 008°31'0 0.0
2018-Jun-23 07:55N 37°07' W 008°31'0 0.0
2018-Jun-23 07:28N 37°07' W 008°31'0 0.0
2018-Jun-23 06:58N 37°07' W 008°31'0 0.0
2018-Jun-23 06:25N 37°07' W 008°31'0 0.0
2018-Jun-23 05:58N 37°07' W 008°31'0 0.0
2018-Jun-23 05:25N 37°07' W 008°31'0 0.0
2018-Jun-23 04:55N 37°07' W 008°31'0 0.0
2018-Jun-23 04:28N 37°07' W 008°31'0 0.0
2018-Jun-23 03:55N 37°07' W 008°31'0 0.0
2018-Jun-23 03:28N 37°07' W 008°31'0 0.0
2018-Jun-23 02:49N 37°07' W 008°31'0 0.0
2018-Jun-23 02:25N 37°07' W 008°31'0 0.0
2018-Jun-23 01:37N 37°07' W 008°31'0 0.0
2018-Jun-23 01:22N 37°07' W 008°31'0 0.0
2018-Jun-23 00:55N 37°07' W 008°31'0 0.0
2018-Jun-23 00:28N 37°07' W 008°31'0 0.0
2018-Jun-22 23:58N 37°07' W 008°31'0 0.0
2018-Jun-22 23:25N 37°07' W 008°32'0 0.0
2018-Jun-22 22:58N 37°07' W 008°31'0 0.0
2018-Jun-22 22:28N 37°07' W 008°31'0 0.0
2018-Jun-22 21:55N 37°07' W 008°31'0 0.0
2018-Jun-22 21:22N 37°07' W 008°31'0 0.0
2018-Jun-22 20:55N 37°07' W 008°31'4 0.6
2018-Jun-22 13:46N 37°08' W 008°36'4 6.8
2018-Jun-22 13:11N 37°07' W 008°31'1 2.5
2018-Jun-22 12:56N 37°06' W 008°32'2 5.7
2018-Jun-22 12:30N 37°05' W 008°35'3 6.1
2018-Jun-22 11:59N 37°08' W 008°36'2 3.3
2018-Jun-22 11:30N 37°06' W 008°36'3 5.1
2018-Jun-22 10:53N 37°04' W 008°38'2 3.3
2018-Jun-22 10:19N 37°06' W 008°38'1 4.5
2018-Jun-22 10:00N 37°07' W 008°37'1 1.7
2018-Jun-22 09:22N 37°08' W 008°36'0 0.0
2018-Jun-22 08:58N 37°08' W 008°36'0 0.0
2018-Jun-22 08:28N 37°08' W 008°36'0 0.0
2018-Jun-22 07:53N 37°08' W 008°36'0 0.0
2018-Jun-22 07:22N 37°08' W 008°36'0 0.0
2018-Jun-22 02:25N 37°08' W 008°36'0 0.0
2018-Jun-22 01:55N 37°08' W 008°36'0 0.0
2018-Jun-22 01:28N 37°08' W 008°36'0 0.0
2018-Jun-22 00:58N 37°08' W 008°36'0 0.0
2018-Jun-22 00:16N 37°08' W 008°36'0 0.0
2018-Jun-21 23:55N 37°08' W 008°36'0 0.0
2018-Jun-21 23:28N 37°08' W 008°36'0 0.0
2018-Jun-21 22:58N 37°08' W 008°36'0 0.0
2018-Jun-21 22:22N 37°08' W 008°36'0 0.0
2018-Jun-21 21:58N 37°08' W 008°36'0 0.0
2018-Jun-21 21:28N 37°08' W 008°36'0 0.0
2018-Jun-21 18:48N 37°08' W 008°36'0 0.0
2018-Jun-21 18:28N 37°08' W 008°36'0 0.0
2018-Jun-21 17:58N 37°08' W 008°36'0 0.0
2018-Jun-21 17:26N 37°08' W 008°36'0 0.0
2018-Jun-21 16:58N 37°08' W 008°36'0 0.0
2018-Jun-21 16:25N 37°08' W 008°36'0 0.0
2018-Jun-21 15:58N 37°08' W 008°36'0 0.0
2018-Jun-21 15:28N 37°08' W 008°36'0 0.0
2018-Jun-21 14:49N 37°08' W 008°36'0 0.0
2018-Jun-21 14:25N 37°08' W 008°36'0 0.0
2018-Jun-21 13:40N 37°08' W 008°36'0 0.0
2018-Jun-21 13:16N 37°08' W 008°36'0 0.1
2018-Jun-21 12:58N 37°08' W 008°36'0 0.0
2018-Jun-21 12:28N 37°08' W 008°36'0 0.0
2018-Jun-21 11:55N 37°08' W 008°36'0 0.0
2018-Jun-21 11:07N 37°08' W 008°36'0 0.0
2018-Jun-21 10:37N 37°08' W 008°36'0 0.0
2018-Jun-21 10:28N 37°08' W 008°36'0 0.0
2018-Jun-21 09:58N 37°08' W 008°36'0 0.0
2018-Jun-21 09:25N 37°08' W 008°36'0 0.0
2018-Jun-21 08:49N 37°08' W 008°36'0 0.0
2018-Jun-21 08:28N 37°08' W 008°36'0 0.0
2018-Jun-21 07:58N 37°08' W 008°36'0 0.0
2018-Jun-21 07:25N 37°08' W 008°36'0 0.0
2018-Jun-21 06:55N 37°08' W 008°36'0 0.0
2018-Jun-21 06:28N 37°08' W 008°36'0 0.0
2018-Jun-21 05:49N 37°08' W 008°36'0 0.0
2018-Jun-21 04:32N 37°08' W 008°36'0 0.1
2018-Jun-21 04:19N 37°08' W 008°36'0 0.0
2018-Jun-21 00:43N 37°08' W 008°36'0 0.0
2018-Jun-21 00:25N 37°08' W 008°36'0 0.0
2018-Jun-20 22:43N 37°08' W 008°36'0 0.0
2018-Jun-20 22:22N 37°08' W 008°36'0 0.0
2018-Jun-20 21:55N 37°08' W 008°36'0 0.0
2018-Jun-20 21:22N 37°08' W 008°36'0 0.0
2018-Jun-20 20:58N 37°08' W 008°36'0 0.0
2018-Jun-20 20:28N 37°08' W 008°36'0 0.0
2018-Jun-20 19:59N 37°08' W 008°36'0 0.0
2018-Jun-20 19:28N 37°08' W 008°36'0 0.0
2018-Jun-20 18:58N 37°08' W 008°36'0 0.0
2018-Jun-20 18:25N 37°08' W 008°36'0 0.0
2018-Jun-20 17:58N 37°08' W 008°36'0 0.0
2018-Jun-20 17:25N 37°08' W 008°36'0 0.0
2018-Jun-20 16:55N 37°08' W 008°36'0 0.0
2018-Jun-20 16:25N 37°08' W 008°36'0 0.1
2018-Jun-20 15:58N 37°08' W 008°36'0 0.0
2018-Jun-20 15:25N 37°08' W 008°36'0 0.0
2018-Jun-20 14:55N 37°08' W 008°36'0 0.0
2018-Jun-20 14:25N 37°08' W 008°36'0 0.0
2018-Jun-20 13:55N 37°08' W 008°36'0 0.0
2018-Jun-20 13:25N 37°08' W 008°36'0 0.0
2018-Jun-20 12:58N 37°08' W 008°36'0 0.0
2018-Jun-20 12:28N 37°08' W 008°36'0 0.0
2018-Jun-20 11:55N 37°08' W 008°36'0 0.0
2018-Jun-20 11:19N 37°08' W 008°36'0 0.0
2018-Jun-20 10:55N 37°08' W 008°36'0 0.0
2018-Jun-20 10:25N 37°08' W 008°36'0 0.0
2018-Jun-20 09:58N 37°08' W 008°36'0 0.0
2018-Jun-20 09:28N 37°08' W 008°36'0 0.0
2018-Jun-20 08:55N 37°08' W 008°36'0 0.0
2018-Jun-20 08:26N 37°08' W 008°36'0 0.0
2018-Jun-20 08:00N 37°08' W 008°36'0 0.0
2018-Jun-20 07:29N 37°08' W 008°36'0 0.0
2018-Jun-20 06:55N 37°08' W 008°36'0 0.0
2018-Jun-20 06:28N 37°08' W 008°36'0 0.0
2018-Jun-20 05:58N 37°08' W 008°36'0 0.0
2018-Jun-20 05:25N 37°08' W 008°36'0 0.0
2018-Jun-20 04:58N 37°08' W 008°36'0 0.0
2018-Jun-20 04:25N 37°08' W 008°36'0 0.0
2018-Jun-20 03:55N 37°08' W 008°36'0 0.0
2018-Jun-20 03:25N 37°08' W 008°36'0 0.0
2018-Jun-20 02:55N 37°08' W 008°36'0 0.1
2018-Jun-20 02:28N 37°08' W 008°36'0 0.0
2018-Jun-20 01:55N 37°08' W 008°36'0 0.0
2018-Jun-20 01:25N 37°08' W 008°36'0 0.0
2018-Jun-20 00:58N 37°08' W 008°36'0 0.0
2018-Jun-20 00:25N 37°08' W 008°36'0 0.0
2018-Jun-19 23:55N 37°08' W 008°36'0 0.0
2018-Jun-19 23:25N 37°08' W 008°36'0 0.0
2018-Jun-19 22:58N 37°08' W 008°36'0 0.0
2018-Jun-19 22:25N 37°08' W 008°36'0 0.0
2018-Jun-19 21:55N 37°08' W 008°36'0 0.0
2018-Jun-19 21:25N 37°08' W 008°36'0 0.0
2018-Jun-19 20:58N 37°08' W 008°36'0 0.0
2018-Jun-19 20:25N 37°08' W 008°36'0 0.0
2018-Jun-19 19:55N 37°08' W 008°36'0 0.0
2018-Jun-19 19:28N 37°08' W 008°36'0 0.0
2018-Jun-19 18:49N 37°08' W 008°36'0 0.0
2018-Jun-19 18:25N 37°08' W 008°36'0 0.0
2018-Jun-19 17:55N 37°08' W 008°36'0 0.0
2018-Jun-19 17:25N 37°08' W 008°36'0 0.0
2018-Jun-19 16:58N 37°08' W 008°36'0 0.0
2018-Jun-19 16:25N 37°08' W 008°36'0 0.0
2018-Jun-19 15:58N 37°08' W 008°36'0 0.0
2018-Jun-19 15:28N 37°08' W 008°36'0 0.0
2018-Jun-19 14:58N 37°08' W 008°36'0 0.0
2018-Jun-19 14:26N 37°08' W 008°36'0 0.0
2018-Jun-19 13:58N 37°08' W 008°36'0 0.0
2018-Jun-19 13:26N 37°08' W 008°36'0 0.0
2018-Jun-19 12:55N 37°08' W 008°36'0 0.0
2018-Jun-19 12:25N 37°08' W 008°36'0 0.0
2018-Jun-19 11:58N 37°08' W 008°36'0 0.0
2018-Jun-19 11:25N 37°08' W 008°36'0 0.0
2018-Jun-19 10:55N 37°08' W 008°36'0 0.0
2018-Jun-19 10:28N 37°08' W 008°36'0 0.0
2018-Jun-19 09:58N 37°08' W 008°36'0 0.0
2018-Jun-19 09:25N 37°08' W 008°36'0 0.0
2018-Jun-19 08:58N 37°08' W 008°36'0 0.0
2018-Jun-19 08:25N 37°08' W 008°36'0 0.0
2018-Jun-19 07:55N 37°08' W 008°36'0 0.0
2018-Jun-19 07:28N 37°08' W 008°36'0 0.0
2018-Jun-19 06:55N 37°08' W 008°36'0 0.0
2018-Jun-19 06:25N 37°08' W 008°36'0 0.0
2018-Jun-19 05:49N 37°08' W 008°36'0 0.0
2018-Jun-19 05:28N 37°08' W 008°36'0 0.0
2018-Jun-19 04:58N 37°08' W 008°36'0 0.0
2018-Jun-19 04:25N 37°08' W 008°36'0 0.0
2018-Jun-19 03:55N 37°08' W 008°36'0 0.1
2018-Jun-19 03:28N 37°08' W 008°36'0 0.0
2018-Jun-19 02:55N 37°08' W 008°36'0 0.0
2018-Jun-19 02:25N 37°08' W 008°36'0 0.0
2018-Jun-19 01:59N 37°08' W 008°36'0 0.0
2018-Jun-19 01:29N 37°08' W 008°36'0 0.0
2018-Jun-19 00:55N 37°08' W 008°36'0 0.0
2018-Jun-19 00:28N 37°08' W 008°36'0 0.0
2018-Jun-18 23:59N 37°08' W 008°36'0 0.0
2018-Jun-18 23:29N 37°08' W 008°36'0 0.0
2018-Jun-18 22:59N 37°08' W 008°36'0 0.0
2018-Jun-18 22:29N 37°08' W 008°36'0 0.0
2018-Jun-18 21:59N 37°08' W 008°36'0 0.0
2018-Jun-18 21:29N 37°08' W 008°36'0 0.0
2018-Jun-18 20:59N 37°08' W 008°36'0 0.0
2018-Jun-18 20:26N 37°08' W 008°36'0 0.0
2018-Jun-18 19:59N 37°08' W 008°36'0 0.0
2018-Jun-18 19:26N 37°08' W 008°36'0 0.0
2018-Jun-18 18:59N 37°08' W 008°36'0 0.0
2018-Jun-18 15:14N 37°08' W 008°36'0 0.0
2018-Jun-18 14:56N 37°08' W 008°36'0 0.0
2018-Jun-18 14:26N 37°08' W 008°36'0 0.0
2018-Jun-18 13:56N 37°08' W 008°36'0 0.0
2018-Jun-18 13:26N 37°08' W 008°36'0 0.0
2018-Jun-18 12:53N 37°08' W 008°36'0 0.0
2018-Jun-18 12:29N 37°08' W 008°36'0 0.0
2018-Jun-18 11:56N 37°08' W 008°36'0 0.0
2018-Jun-18 11:20N 37°08' W 008°36'0 0.0
2018-Jun-18 10:50N 37°08' W 008°36'0 0.0
2018-Jun-18 10:29N 37°08' W 008°36'0 0.0
2018-Jun-18 09:59N 37°08' W 008°36'0 0.0
2018-Jun-18 09:17N 37°08' W 008°36'0 0.0
2018-Jun-18 08:56N 37°08' W 008°36'0 0.0
2018-Jun-18 08:26N 37°08' W 008°36'0 0.0
2018-Jun-18 07:56N 37°08' W 008°36'0 0.0
2018-Jun-18 07:29N 37°08' W 008°36'0 0.0
2018-Jun-18 06:59N 37°08' W 008°36'0 0.0
2018-Jun-18 06:29N 37°08' W 008°36'0 0.0
2018-Jun-18 05:59N 37°08' W 008°36'0 0.0
2018-Jun-18 05:29N 37°08' W 008°36'0 0.0
2018-Jun-18 04:59N 37°08' W 008°36'0 0.0
2018-Jun-18 04:26N 37°08' W 008°36'0 0.0
2018-Jun-18 03:59N 37°08' W 008°36'0 0.0
2018-Jun-18 03:26N 37°08' W 008°36'0 0.0
2018-Jun-18 02:59N 37°08' W 008°36'0 0.0
2018-Jun-18 02:26N 37°08' W 008°36'0 0.0
2018-Jun-18 01:56N 37°08' W 008°36'0 0.0
2018-Jun-18 01:29N 37°08' W 008°36'0 0.0
2018-Jun-18 00:59N 37°08' W 008°36'0 0.0
2018-Jun-18 00:29N 37°08' W 008°36'0 0.0
2018-Jun-17 23:59N 37°08' W 008°36'0 0.0
2018-Jun-17 23:26N 37°08' W 008°36'0 0.0
2018-Jun-17 22:56N 37°08' W 008°36'0 0.0
2018-Jun-17 22:29N 37°08' W 008°36'0 0.0
2018-Jun-17 21:59N 37°08' W 008°36'0 0.0
2018-Jun-17 21:29N 37°08' W 008°36'0 0.0
2018-Jun-17 20:50N 37°08' W 008°36'0 0.0
2018-Jun-17 20:26N 37°08' W 008°36'0 0.0
2018-Jun-17 19:26N 37°08' W 008°36'0 0.0
2018-Jun-17 18:02N 37°08' W 008°36'0 0.0
2018-Jun-17 17:41N 37°08' W 008°36'0 0.0
2018-Jun-17 12:42N 37°08' W 008°36'0 0.0
2018-Jun-17 12:26N 37°08' W 008°36'0 0.0
2018-Jun-17 11:58N 37°08' W 008°36'0 0.0
2018-Jun-17 10:46N 37°08' W 008°36'0 0.0
2018-Jun-17 10:20N 37°08' W 008°36'0 0.0
2018-Jun-17 09:58N 37°08' W 008°36'0 0.0
2018-Jun-17 09:28N 37°08' W 008°36'0 0.0
2018-Jun-17 08:19N 37°08' W 008°36'0 0.0
2018-Jun-17 07:49N 37°08' W 008°36'0 0.0
2018-Jun-17 07:28N 37°08' W 008°36'0 0.0
2018-Jun-17 05:25N 37°08' W 008°36'0 0.0
2018-Jun-17 04:58N 37°08' W 008°36'0 0.0
2018-Jun-17 04:16N 37°08' W 008°36'0 0.0
2018-Jun-17 03:47N 37°08' W 008°36'0 0.0
2018-Jun-17 03:25N 37°08' W 008°36'0 0.0
2018-Jun-17 02:58N 37°08' W 008°36'0 0.0
2018-Jun-17 02:19N 37°08' W 008°36'0 0.0
2018-Jun-17 01:58N 37°08' W 008°36'0 0.0
2018-Jun-17 01:28N 37°08' W 008°36'0 0.0
2018-Jun-17 00:58N 37°08' W 008°36'0 0.0
2018-Jun-17 00:25N 37°08' W 008°36'0 0.0
2018-Jun-16 23:55N 37°08' W 008°36'0 0.0
2018-Jun-16 23:28N 37°08' W 008°36'0 0.0
2018-Jun-16 22:58N 37°08' W 008°36'0 0.0
2018-Jun-16 22:28N 37°08' W 008°36'0 0.0
2018-Jun-16 21:55N 37°08' W 008°36'0 0.0
2018-Jun-16 21:25N 37°08' W 008°36'0 0.0
2018-Jun-16 19:19N 37°08' W 008°36'0 0.0
2018-Jun-16 18:55N 37°08' W 008°36'0 0.0
2018-Jun-16 18:10N 37°08' W 008°36'0 0.0
2018-Jun-16 17:55N 37°08' W 008°36'0 0.0
2018-Jun-16 17:25N 37°08' W 008°36'0 0.0
2018-Jun-16 16:58N 37°08' W 008°36'0 0.0
2018-Jun-16 16:25N 37°08' W 008°36'0 0.0
2018-Jun-16 15:55N 37°08' W 008°36'0 0.0
2018-Jun-16 15:28N 37°08' W 008°36'0 0.0
2018-Jun-16 15:00N 37°08' W 008°36'0 0.0
2018-Jun-16 14:30N 37°08' W 008°36'0 0.0
2018-Jun-16 14:00N 37°08' W 008°36'1 1.9
2018-Jun-16 13:30N 37°07' W 008°37'2 3.8
2018-Jun-16 13:00N 37°06' W 008°36'2 3.1
2018-Jun-16 12:30N 37°04' W 008°35'1 2.3
2018-Jun-16 11:56N 37°03' W 008°34'2 5.4
2018-Jun-16 11:30N 37°04' W 008°37'2 4.5
2018-Jun-16 10:59N 37°06' W 008°39'1 1.6
2018-Jun-16 10:05N 37°07' W 008°40'0 0.0
2018-Jun-16 09:53N 37°07' W 008°40'0 0.0
2018-Jun-16 09:26N 37°07' W 008°40'0 0.0
2018-Jun-16 07:07N 37°07' W 008°40'0 0.0
2018-Jun-16 06:59N 37°07' W 008°40'0 0.0
2018-Jun-16 06:28N 37°07' W 008°40'0 0.0
2018-Jun-16 05:52N 37°07' W 008°40'0 0.0
2018-Jun-16 05:23N 37°07' W 008°40'0 0.0
2018-Jun-16 04:55N 37°07' W 008°40'0 0.0
2018-Jun-16 04:30N 37°07' W 008°40'0 0.0
2018-Jun-16 03:44N 37°07' W 008°40'0 0.0
2018-Jun-16 03:20N 37°07' W 008°40'0 0.0
2018-Jun-16 03:00N 37°07' W 008°40'0 0.0
2018-Jun-16 02:26N 37°07' W 008°40'0 0.0
2018-Jun-16 01:55N 37°07' W 008°40'0 0.0
2018-Jun-16 00:42N 37°07' W 008°40'0 0.0
2018-Jun-16 00:26N 37°07' W 008°40'0 0.0
2018-Jun-15 23:49N 37°07' W 008°40'0 0.0
2018-Jun-15 23:30N 37°07' W 008°40'0 0.0
2018-Jun-15 22:59N 37°07' W 008°40'0 0.0
2018-Jun-15 22:24N 37°07' W 008°40'0 0.0
2018-Jun-15 21:59N 37°07' W 008°40'0 0.0
2018-Jun-15 21:13N 37°07' W 008°40'  

Dump ship's entire track history